sensor_id;sensor_type;location;lat;lon;timestamp;P1;durP1;ratioP1;P2;durP2;ratioP2
24157;SDS011;12316;50.904;4.200;2023-07-24T00:01:45;8.57;;;3.97;;
24157;SDS011;12316;50.904;4.200;2023-07-24T00:04:11;6.40;;;4.10;;
24157;SDS011;12316;50.904;4.200;2023-07-24T00:06:36;10.07;;;4.85;;
24157;SDS011;12316;50.904;4.200;2023-07-24T00:09:02;5.55;;;4.32;;
24157;SDS011;12316;50.904;4.200;2023-07-24T00:11:28;7.00;;;4.82;;
24157;SDS011;12316;50.904;4.200;2023-07-24T00:13:53;7.28;;;5.05;;
24157;SDS011;12316;50.904;4.200;2023-07-24T00:16:19;8.15;;;4.18;;
24157;SDS011;12316;50.904;4.200;2023-07-24T00:18:45;9.68;;;4.40;;
24157;SDS011;12316;50.904;4.200;2023-07-24T00:21:10;8.05;;;4.72;;
24157;SDS011;12316;50.904;4.200;2023-07-24T00:23:38;5.65;;;4.32;;
24157;SDS011;12316;50.904;4.200;2023-07-24T00:26:04;13.45;;;4.93;;
24157;SDS011;12316;50.904;4.200;2023-07-24T00:28:30;9.85;;;4.90;;
24157;SDS011;12316;50.904;4.200;2023-07-24T00:30:55;9.82;;;4.63;;
24157;SDS011;12316;50.904;4.200;2023-07-24T00:33:21;9.02;;;4.85;;
24157;SDS011;12316;50.904;4.200;2023-07-24T00:35:47;6.88;;;4.75;;
24157;SDS011;12316;50.904;4.200;2023-07-24T00:38:13;7.25;;;4.90;;
24157;SDS011;12316;50.904;4.200;2023-07-24T00:40:38;7.82;;;5.05;;
24157;SDS011;12316;50.904;4.200;2023-07-24T00:43:04;8.18;;;5.00;;
24157;SDS011;12316;50.904;4.200;2023-07-24T00:45:30;12.18;;;5.60;;
24157;SDS011;12316;50.904;4.200;2023-07-24T00:47:56;8.77;;;5.30;;
24157;SDS011;12316;50.904;4.200;2023-07-24T00:50:21;10.90;;;5.75;;
24157;SDS011;12316;50.904;4.200;2023-07-24T00:52:48;6.78;;;5.15;;
24157;SDS011;12316;50.904;4.200;2023-07-24T00:55:14;8.35;;;5.35;;
24157;SDS011;12316;50.904;4.200;2023-07-24T00:57:41;12.55;;;5.60;;
24157;SDS011;12316;50.904;4.200;2023-07-24T01:00:08;9.90;;;5.38;;
24157;SDS011;12316;50.904;4.200;2023-07-24T01:02:35;7.72;;;4.95;;
24157;SDS011;12316;50.904;4.200;2023-07-24T01:05:01;11.05;;;5.20;;
24157;SDS011;12316;50.904;4.200;2023-07-24T01:07:27;8.75;;;5.60;;
24157;SDS011;12316;50.904;4.200;2023-07-24T01:09:52;10.05;;;5.00;;
24157;SDS011;12316;50.904;4.200;2023-07-24T01:12:29;10.80;;;5.00;;
24157;SDS011;12316;50.904;4.200;2023-07-24T01:17:32;12.35;;;5.40;;
24157;SDS011;12316;50.904;4.200;2023-07-24T01:20:02;6.80;;;4.40;;
24157;SDS011;12316;50.904;4.200;2023-07-24T01:22:38;6.35;;;3.80;;
24157;SDS011;12316;50.904;4.200;2023-07-24T01:25:11;6.32;;;3.80;;
24157;SDS011;12316;50.904;4.200;2023-07-24T01:27:48;5.22;;;3.10;;
24157;SDS011;12316;50.904;4.200;2023-07-24T01:30:17;3.53;;;2.60;;
24157;SDS011;12316;50.904;4.200;2023-07-24T01:32:43;2.90;;;2.10;;
24157;SDS011;12316;50.904;4.200;2023-07-24T01:35:09;2.70;;;2.10;;
24157;SDS011;12316;50.904;4.200;2023-07-24T01:37:35;2.95;;;1.80;;
24157;SDS011;12316;50.904;4.200;2023-07-24T01:40:04;3.45;;;1.92;;
24157;SDS011;12316;50.904;4.200;2023-07-24T01:42:34;2.90;;;2.03;;
24157;SDS011;12316;50.904;4.200;2023-07-24T01:45:01;1.83;;;1.73;;
24157;SDS011;12316;50.904;4.200;2023-07-24T01:47:28;2.13;;;1.58;;
24157;SDS011;12316;50.904;4.200;2023-07-24T01:49:55;1.80;;;1.60;;
24157;SDS011;12316;50.904;4.200;2023-07-24T01:52:21;1.67;;;1.52;;
24157;SDS011;12316;50.904;4.200;2023-07-24T01:54:47;1.98;;;1.50;;
24157;SDS011;12316;50.904;4.200;2023-07-24T01:57:12;2.40;;;1.70;;
24157;SDS011;12316;50.904;4.200;2023-07-24T01:59:38;1.73;;;1.60;;
24157;SDS011;12316;50.904;4.200;2023-07-24T02:02:04;2.35;;;1.73;;
24157;SDS011;12316;50.904;4.200;2023-07-24T02:04:29;2.10;;;1.80;;
24157;SDS011;12316;50.904;4.200;2023-07-24T02:06:55;2.92;;;1.98;;
24157;SDS011;12316;50.904;4.200;2023-07-24T02:09:21;2.53;;;1.67;;
24157;SDS011;12316;50.904;4.200;2023-07-24T02:11:46;3.15;;;1.63;;
24157;SDS011;12316;50.904;4.200;2023-07-24T02:14:13;2.47;;;1.90;;
24157;SDS011;12316;50.904;4.200;2023-07-24T02:16:39;1.92;;;1.70;;
24157;SDS011;12316;50.904;4.200;2023-07-24T02:19:05;4.53;;;2.15;;
24157;SDS011;12316;50.904;4.200;2023-07-24T02:21:31;2.67;;;2.10;;
24157;SDS011;12316;50.904;4.200;2023-07-24T02:23:57;3.22;;;2.13;;
24157;SDS011;12316;50.904;4.200;2023-07-24T02:26:23;2.10;;;1.90;;
24157;SDS011;12316;50.904;4.200;2023-07-24T02:28:48;2.55;;;1.83;;
24157;SDS011;12316;50.904;4.200;2023-07-24T02:31:14;3.05;;;1.95;;
24157;SDS011;12316;50.904;4.200;2023-07-24T02:33:40;2.28;;;2.00;;
24157;SDS011;12316;50.904;4.200;2023-07-24T02:36:05;3.72;;;2.15;;
24157;SDS011;12316;50.904;4.200;2023-07-24T02:38:31;3.92;;;2.20;;
24157;SDS011;12316;50.904;4.200;2023-07-24T02:40:57;2.00;;;1.80;;
24157;SDS011;12316;50.904;4.200;2023-07-24T02:43:22;2.60;;;2.10;;
24157;SDS011;12316;50.904;4.200;2023-07-24T02:45:48;2.22;;;2.00;;
24157;SDS011;12316;50.904;4.200;2023-07-24T02:48:14;2.50;;;2.15;;
24157;SDS011;12316;50.904;4.200;2023-07-24T02:50:39;3.28;;;2.20;;
24157;SDS011;12316;50.904;4.200;2023-07-24T02:53:05;2.38;;;2.10;;
24157;SDS011;12316;50.904;4.200;2023-07-24T02:55:31;3.47;;;2.22;;
24157;SDS011;12316;50.904;4.200;2023-07-24T02:57:56;3.35;;;2.22;;
24157;SDS011;12316;50.904;4.200;2023-07-24T03:00:22;3.83;;;2.25;;
24157;SDS011;12316;50.904;4.200;2023-07-24T03:02:48;2.60;;;2.00;;
24157;SDS011;12316;50.904;4.200;2023-07-24T03:05:13;2.20;;;2.00;;
24157;SDS011;12316;50.904;4.200;2023-07-24T03:07:39;3.38;;;2.10;;
24157;SDS011;12316;50.904;4.200;2023-07-24T03:10:05;2.40;;;2.17;;
24157;SDS011;12316;50.904;4.200;2023-07-24T03:12:32;2.20;;;2.00;;
24157;SDS011;12316;50.904;4.200;2023-07-24T03:14:58;2.78;;;2.30;;
24157;SDS011;12316;50.904;4.200;2023-07-24T03:17:24;2.45;;;1.98;;
24157;SDS011;12316;50.904;4.200;2023-07-24T03:19:49;3.75;;;2.00;;
24157;SDS011;12316;50.904;4.200;2023-07-24T03:22:15;2.30;;;2.10;;
24157;SDS011;12316;50.904;4.200;2023-07-24T03:24:41;4.07;;;2.30;;
24157;SDS011;12316;50.904;4.200;2023-07-24T03:27:06;2.85;;;1.88;;
24157;SDS011;12316;50.904;4.200;2023-07-24T03:29:32;2.28;;;2.08;;
24157;SDS011;12316;50.904;4.200;2023-07-24T03:31:58;2.65;;;2.00;;
24157;SDS011;12316;50.904;4.200;2023-07-24T03:34:23;2.35;;;2.10;;
24157;SDS011;12316;50.904;4.200;2023-07-24T03:36:49;2.80;;;2.50;;
24157;SDS011;12316;50.904;4.200;2023-07-24T03:39:15;3.42;;;2.45;;
24157;SDS011;12316;50.904;4.200;2023-07-24T03:41:41;2.47;;;2.28;;
24157;SDS011;12316;50.904;4.200;2023-07-24T03:44:07;3.03;;;2.08;;
24157;SDS011;12316;50.904;4.200;2023-07-24T03:46:33;3.35;;;2.20;;
24157;SDS011;12316;50.904;4.200;2023-07-24T03:48:58;2.92;;;2.40;;
24157;SDS011;12316;50.904;4.200;2023-07-24T03:51:24;5.35;;;2.25;;
24157;SDS011;12316;50.904;4.200;2023-07-24T03:53:49;2.47;;;2.28;;
24157;SDS011;12316;50.904;4.200;2023-07-24T03:56:15;2.35;;;2.15;;
24157;SDS011;12316;50.904;4.200;2023-07-24T03:58:41;3.53;;;2.05;;
24157;SDS011;12316;50.904;4.200;2023-07-24T04:01:07;2.30;;;2.05;;
24157;SDS011;12316;50.904;4.200;2023-07-24T04:03:34;2.95;;;2.40;;
24157;SDS011;12316;50.904;4.200;2023-07-24T04:06:00;3.58;;;2.20;;
24157;SDS011;12316;50.904;4.200;2023-07-24T04:08:25;4.65;;;2.30;;
24157;SDS011;12316;50.904;4.200;2023-07-24T04:10:51;2.38;;;2.17;;
24157;SDS011;12316;50.904;4.200;2023-07-24T04:13:17;2.42;;;2.20;;
24157;SDS011;12316;50.904;4.200;2023-07-24T04:15:43;3.00;;;1.85;;
24157;SDS011;12316;50.904;4.200;2023-07-24T04:18:09;2.42;;;2.13;;
24157;SDS011;12316;50.904;4.200;2023-07-24T04:20:35;2.80;;;2.17;;
24157;SDS011;12316;50.904;4.200;2023-07-24T04:23:01;4.18;;;2.10;;
24157;SDS011;12316;50.904;4.200;2023-07-24T04:25:26;2.47;;;2.20;;
24157;SDS011;12316;50.904;4.200;2023-07-24T04:27:52;2.92;;;2.25;;
24157;SDS011;12316;50.904;4.200;2023-07-24T04:30:18;2.35;;;2.15;;
24157;SDS011;12316;50.904;4.200;2023-07-24T04:32:44;3.67;;;2.40;;
24157;SDS011;12316;50.904;4.200;2023-07-24T04:35:09;2.20;;;2.00;;
24157;SDS011;12316;50.904;4.200;2023-07-24T04:37:35;2.25;;;2.05;;
24157;SDS011;12316;50.904;4.200;2023-07-24T04:40:01;3.35;;;1.90;;
24157;SDS011;12316;50.904;4.200;2023-07-24T04:42:26;3.60;;;2.28;;
24157;SDS011;12316;50.904;4.200;2023-07-24T04:44:52;2.85;;;2.50;;
24157;SDS011;12316;50.904;4.200;2023-07-24T04:47:18;2.67;;;2.40;;
24157;SDS011;12316;50.904;4.200;2023-07-24T04:49:43;2.60;;;2.20;;
24157;SDS011;12316;50.904;4.200;2023-07-24T04:52:09;3.50;;;2.05;;
24157;SDS011;12316;50.904;4.200;2023-07-24T04:54:34;3.22;;;2.17;;
24157;SDS011;12316;50.904;4.200;2023-07-24T04:57:00;3.03;;;2.00;;
24157;SDS011;12316;50.904;4.200;2023-07-24T04:59:26;2.33;;;2.13;;
24157;SDS011;12316;50.904;4.200;2023-07-24T05:01:51;2.88;;;2.45;;
24157;SDS011;12316;50.904;4.200;2023-07-24T05:04:17;4.32;;;2.22;;
24157;SDS011;12316;50.904;4.200;2023-07-24T05:06:43;3.65;;;2.28;;
24157;SDS011;12316;50.904;4.200;2023-07-24T05:09:08;2.95;;;2.33;;
24157;SDS011;12316;50.904;4.200;2023-07-24T05:11:34;2.92;;;2.28;;
24157;SDS011;12316;50.904;4.200;2023-07-24T05:13:59;3.00;;;2.55;;
24157;SDS011;12316;50.904;4.200;2023-07-24T05:16:25;2.50;;;2.20;;
24157;SDS011;12316;50.904;4.200;2023-07-24T05:18:51;2.88;;;2.25;;
24157;SDS011;12316;50.904;4.200;2023-07-24T05:21:16;2.30;;;1.95;;
24157;SDS011;12316;50.904;4.200;2023-07-24T05:23:42;2.78;;;1.95;;
24157;SDS011;12316;50.904;4.200;2023-07-24T05:26:08;2.67;;;2.30;;
24157;SDS011;12316;50.904;4.200;2023-07-24T05:28:33;4.72;;;2.55;;
24157;SDS011;12316;50.904;4.200;2023-07-24T05:31:03;2.83;;;2.10;;
24157;SDS011;12316;50.904;4.200;2023-07-24T05:33:30;4.13;;;2.00;;
24157;SDS011;12316;50.904;4.200;2023-07-24T05:35:59;2.53;;;2.15;;
24157;SDS011;12316;50.904;4.200;2023-07-24T05:38:26;2.80;;;2.20;;
24157;SDS011;12316;50.904;4.200;2023-07-24T05:40:55;3.08;;;2.08;;
24157;SDS011;12316;50.904;4.200;2023-07-24T05:43:21;2.72;;;2.10;;
24157;SDS011;12316;50.904;4.200;2023-07-24T05:45:47;2.67;;;2.17;;
24157;SDS011;12316;50.904;4.200;2023-07-24T05:48:13;3.15;;;2.20;;
24157;SDS011;12316;50.904;4.200;2023-07-24T05:50:38;3.50;;;2.15;;
24157;SDS011;12316;50.904;4.200;2023-07-24T05:53:06;3.40;;;2.15;;
24157;SDS011;12316;50.904;4.200;2023-07-24T05:55:31;3.30;;;2.17;;
24157;SDS011;12316;50.904;4.200;2023-07-24T05:57:57;3.75;;;2.13;;
24157;SDS011;12316;50.904;4.200;2023-07-24T06:00:23;2.50;;;2.30;;
24157;SDS011;12316;50.904;4.200;2023-07-24T06:02:48;4.80;;;2.85;;
24157;SDS011;12316;50.904;4.200;2023-07-24T06:05:14;3.28;;;2.40;;
24157;SDS011;12316;50.904;4.200;2023-07-24T06:07:39;4.63;;;2.50;;
24157;SDS011;12316;50.904;4.200;2023-07-24T06:10:05;4.82;;;2.63;;
24157;SDS011;12316;50.904;4.200;2023-07-24T06:12:31;4.95;;;2.58;;
24157;SDS011;12316;50.904;4.200;2023-07-24T06:14:57;3.00;;;2.70;;
24157;SDS011;12316;50.904;4.200;2023-07-24T06:17:22;3.97;;;2.72;;
24157;SDS011;12316;50.904;4.200;2023-07-24T06:19:48;3.47;;;2.88;;
24157;SDS011;12316;50.904;4.200;2023-07-24T06:22:14;6.55;;;2.92;;
24157;SDS011;12316;50.904;4.200;2023-07-24T06:24:39;6.43;;;3.00;;
24157;SDS011;12316;50.904;4.200;2023-07-24T06:27:05;4.80;;;3.00;;
24157;SDS011;12316;50.904;4.200;2023-07-24T06:29:34;3.75;;;2.90;;
24157;SDS011;12316;50.904;4.200;2023-07-24T06:32:00;4.32;;;3.20;;
24157;SDS011;12316;50.904;4.200;2023-07-24T06:34:25;5.65;;;3.20;;
24157;SDS011;12316;50.904;4.200;2023-07-24T06:36:51;4.60;;;3.22;;
24157;SDS011;12316;50.904;4.200;2023-07-24T06:39:17;4.70;;;3.33;;
24157;SDS011;12316;50.904;4.200;2023-07-24T06:41:42;5.07;;;2.97;;
24157;SDS011;12316;50.904;4.200;2023-07-24T06:44:08;4.63;;;3.30;;
24157;SDS011;12316;50.904;4.200;2023-07-24T06:46:34;5.55;;;3.20;;
24157;SDS011;12316;50.904;4.200;2023-07-24T06:48:59;6.40;;;2.95;;
24157;SDS011;12316;50.904;4.200;2023-07-24T06:51:25;3.50;;;3.10;;
24157;SDS011;12316;50.904;4.200;2023-07-24T06:53:51;4.50;;;2.73;;
24157;SDS011;12316;50.904;4.200;2023-07-24T06:56:16;5.05;;;2.97;;
24157;SDS011;12316;50.904;4.200;2023-07-24T06:58:42;3.28;;;2.83;;
24157;SDS011;12316;50.904;4.200;2023-07-24T07:01:07;3.45;;;2.50;;
24157;SDS011;12316;50.904;4.200;2023-07-24T07:03:33;3.70;;;3.03;;
24157;SDS011;12316;50.904;4.200;2023-07-24T07:06:02;3.70;;;2.75;;
24157;SDS011;12316;50.904;4.200;2023-07-24T07:08:28;4.53;;;2.90;;
24157;SDS011;12316;50.904;4.200;2023-07-24T07:10:59;4.93;;;3.00;;
24157;SDS011;12316;50.904;4.200;2023-07-24T07:13:25;5.93;;;2.33;;
24157;SDS011;12316;50.904;4.200;2023-07-24T07:15:51;4.28;;;2.70;;
24157;SDS011;12316;50.904;4.200;2023-07-24T07:18:17;3.65;;;2.85;;
24157;SDS011;12316;50.904;4.200;2023-07-24T07:20:46;3.55;;;2.40;;
24157;SDS011;12316;50.904;4.200;2023-07-24T07:23:13;2.85;;;2.60;;
24157;SDS011;12316;50.904;4.200;2023-07-24T07:25:39;5.15;;;2.67;;
24157;SDS011;12316;50.904;4.200;2023-07-24T07:28:05;3.67;;;2.53;;
24157;SDS011;12316;50.904;4.200;2023-07-24T07:30:31;2.78;;;2.40;;
24157;SDS011;12316;50.904;4.200;2023-07-24T07:32:56;4.25;;;2.85;;
24157;SDS011;12316;50.904;4.200;2023-07-24T07:35:22;4.15;;;2.60;;
24157;SDS011;12316;50.904;4.200;2023-07-24T07:37:48;3.85;;;2.55;;
24157;SDS011;12316;50.904;4.200;2023-07-24T07:40:20;3.50;;;2.65;;
24157;SDS011;12316;50.904;4.200;2023-07-24T07:42:47;3.30;;;2.80;;
24157;SDS011;12316;50.904;4.200;2023-07-24T07:45:15;4.18;;;2.67;;
24157;SDS011;12316;50.904;4.200;2023-07-24T07:47:41;3.33;;;2.58;;
24157;SDS011;12316;50.904;4.200;2023-07-24T07:50:08;4.30;;;2.80;;
24157;SDS011;12316;50.904;4.200;2023-07-24T07:52:33;2.97;;;2.60;;
24157;SDS011;12316;50.904;4.200;2023-07-24T07:55:00;5.88;;;2.90;;
24157;SDS011;12316;50.904;4.200;2023-07-24T07:57:26;4.95;;;2.67;;
24157;SDS011;12316;50.904;4.200;2023-07-24T07:59:52;3.60;;;2.80;;
24157;SDS011;12316;50.904;4.200;2023-07-24T08:02:17;3.40;;;2.58;;
24157;SDS011;12316;50.904;4.200;2023-07-24T08:04:43;3.30;;;2.75;;
24157;SDS011;12316;50.904;4.200;2023-07-24T08:07:08;3.95;;;2.65;;
24157;SDS011;12316;50.904;4.200;2023-07-24T08:09:34;4.38;;;2.83;;
24157;SDS011;12316;50.904;4.200;2023-07-24T08:12:01;3.33;;;2.75;;
24157;SDS011;12316;50.904;4.200;2023-07-24T08:14:26;3.78;;;3.05;;
24157;SDS011;12316;50.904;4.200;2023-07-24T08:16:52;3.28;;;2.65;;
24157;SDS011;12316;50.904;4.200;2023-07-24T08:19:18;3.45;;;2.40;;
24157;SDS011;12316;50.904;4.200;2023-07-24T08:21:44;3.42;;;2.80;;
24157;SDS011;12316;50.904;4.200;2023-07-24T08:24:11;2.97;;;2.67;;
24157;SDS011;12316;50.904;4.200;2023-07-24T08:26:37;3.42;;;2.63;;
24157;SDS011;12316;50.904;4.200;2023-07-24T08:29:03;3.65;;;2.40;;
24157;SDS011;12316;50.904;4.200;2023-07-24T08:31:29;3.13;;;2.72;;
24157;SDS011;12316;50.904;4.200;2023-07-24T08:33:55;3.03;;;2.72;;
24157;SDS011;12316;50.904;4.200;2023-07-24T08:36:21;3.15;;;2.85;;
24157;SDS011;12316;50.904;4.200;2023-07-24T08:38:47;3.65;;;2.85;;
24157;SDS011;12316;50.904;4.200;2023-07-24T08:41:13;3.45;;;2.97;;
24157;SDS011;12316;50.904;4.200;2023-07-24T08:43:40;4.72;;;2.88;;
24157;SDS011;12316;50.904;4.200;2023-07-24T08:46:07;4.18;;;3.05;;
24157;SDS011;12316;50.904;4.200;2023-07-24T08:48:34;3.88;;;2.47;;
24157;SDS011;12316;50.904;4.200;2023-07-24T08:51:02;2.80;;;2.40;;
24157;SDS011;12316;50.904;4.200;2023-07-24T08:53:29;3.00;;;2.70;;
24157;SDS011;12316;50.904;4.200;2023-07-24T08:55:56;4.03;;;2.70;;
24157;SDS011;12316;50.904;4.200;2023-07-24T08:58:22;3.90;;;2.70;;
24157;SDS011;12316;50.904;4.200;2023-07-24T09:00:48;4.13;;;2.40;;
24157;SDS011;12316;50.904;4.200;2023-07-24T09:03:14;2.90;;;2.42;;
24157;SDS011;12316;50.904;4.200;2023-07-24T09:05:39;3.45;;;2.30;;
24157;SDS011;12316;50.904;4.200;2023-07-24T09:08:05;3.22;;;2.30;;
24157;SDS011;12316;50.904;4.200;2023-07-24T09:10:31;3.13;;;2.50;;
24157;SDS011;12316;50.904;4.200;2023-07-24T09:12:56;5.18;;;2.50;;
24157;SDS011;12316;50.904;4.200;2023-07-24T09:15:22;3.50;;;2.20;;
24157;SDS011;12316;50.904;4.200;2023-07-24T09:17:51;4.22;;;2.50;;
24157;SDS011;12316;50.904;4.200;2023-07-24T09:20:18;3.97;;;2.15;;
24157;SDS011;12316;50.904;4.200;2023-07-24T09:22:53;2.85;;;2.35;;
24157;SDS011;12316;50.904;4.200;2023-07-24T09:25:31;2.42;;;2.17;;
24157;SDS011;12316;50.904;4.200;2023-07-24T09:27:58;3.45;;;2.40;;
24157;SDS011;12316;50.904;4.200;2023-07-24T09:30:24;4.10;;;2.30;;
24157;SDS011;12316;50.904;4.200;2023-07-24T09:32:53;3.25;;;2.25;;
24157;SDS011;12316;50.904;4.200;2023-07-24T09:35:19;2.75;;;2.20;;
24157;SDS011;12316;50.904;4.200;2023-07-24T09:37:51;3.47;;;2.75;;
24157;SDS011;12316;50.904;4.200;2023-07-24T09:40:45;3.70;;;2.42;;
24157;SDS011;12316;50.904;4.200;2023-07-24T09:43:19;3.42;;;2.10;;
24157;SDS011;12316;50.904;4.200;2023-07-24T09:45:47;2.63;;;2.40;;
24157;SDS011;12316;50.904;4.200;2023-07-24T09:48:14;2.88;;;2.13;;
24157;SDS011;12316;50.904;4.200;2023-07-24T09:50:41;3.83;;;2.65;;
24157;SDS011;12316;50.904;4.200;2023-07-24T09:53:17;3.05;;;2.38;;
24157;SDS011;12316;50.904;4.200;2023-07-24T09:55:58;3.88;;;2.67;;
24157;SDS011;12316;50.904;4.200;2023-07-24T09:58:35;4.35;;;2.40;;
24157;SDS011;12316;50.904;4.200;2023-07-24T10:01:06;4.18;;;2.60;;
24157;SDS011;12316;50.904;4.200;2023-07-24T10:03:40;3.25;;;2.60;;
24157;SDS011;12316;50.904;4.200;2023-07-24T10:06:11;3.17;;;2.63;;
24157;SDS011;12316;50.904;4.200;2023-07-24T10:08:37;3.00;;;2.65;;
24157;SDS011;12316;50.904;4.200;2023-07-24T10:11:04;3.63;;;2.80;;
24157;SDS011;12316;50.904;4.200;2023-07-24T10:13:29;3.10;;;2.60;;
24157;SDS011;12316;50.904;4.200;2023-07-24T10:15:56;3.92;;;2.80;;
24157;SDS011;12316;50.904;4.200;2023-07-24T10:18:27;4.47;;;2.80;;
24157;SDS011;12316;50.904;4.200;2023-07-24T10:21:04;5.07;;;2.85;;
24157;SDS011;12316;50.904;4.200;2023-07-24T10:23:33;2.78;;;2.47;;
24157;SDS011;12316;50.904;4.200;2023-07-24T10:26:05;3.67;;;2.72;;
24157;SDS011;12316;50.904;4.200;2023-07-24T10:28:36;3.22;;;2.70;;
24157;SDS011;12316;50.904;4.200;2023-07-24T10:31:27;3.78;;;2.60;;
24157;SDS011;12316;50.904;4.200;2023-07-24T10:33:52;4.57;;;2.40;;
24157;SDS011;12316;50.904;4.200;2023-07-24T10:36:19;4.75;;;3.03;;
24157;SDS011;12316;50.904;4.200;2023-07-24T10:38:51;5.10;;;3.00;;
24157;SDS011;12316;50.904;4.200;2023-07-24T10:41:18;4.47;;;3.05;;
24157;SDS011;12316;50.904;4.200;2023-07-24T10:43:47;4.40;;;3.20;;
24157;SDS011;12316;50.904;4.200;2023-07-24T10:46:16;5.07;;;3.15;;
24157;SDS011;12316;50.904;4.200;2023-07-24T10:48:44;4.05;;;3.42;;
24157;SDS011;12316;50.904;4.200;2023-07-24T10:51:14;3.45;;;3.15;;
24157;SDS011;12316;50.904;4.200;2023-07-24T10:53:44;7.28;;;3.55;;
24157;SDS011;12316;50.904;4.200;2023-07-24T10:56:11;4.85;;;3.20;;
24157;SDS011;12316;50.904;4.200;2023-07-24T10:58:37;4.72;;;3.30;;
24157;SDS011;12316;50.904;4.200;2023-07-24T11:01:03;4.78;;;3.88;;
24157;SDS011;12316;50.904;4.200;2023-07-24T11:03:31;4.38;;;3.50;;
24157;SDS011;12316;50.904;4.200;2023-07-24T11:05:57;4.78;;;3.60;;
24157;SDS011;12316;50.904;4.200;2023-07-24T11:08:24;4.97;;;3.95;;
24157;SDS011;12316;50.904;4.200;2023-07-24T11:10:50;8.07;;;3.95;;
24157;SDS011;12316;50.904;4.200;2023-07-24T11:13:21;4.97;;;3.90;;
24157;SDS011;12316;50.904;4.200;2023-07-24T11:15:51;5.13;;;3.70;;
24157;SDS011;12316;50.904;4.200;2023-07-24T11:18:18;5.50;;;3.63;;
24157;SDS011;12316;50.904;4.200;2023-07-24T11:20:48;5.25;;;4.00;;
24157;SDS011;12316;50.904;4.200;2023-07-24T11:23:16;7.13;;;4.00;;
24157;SDS011;12316;50.904;4.200;2023-07-24T11:25:42;5.53;;;3.83;;
24157;SDS011;12316;50.904;4.200;2023-07-24T11:28:09;4.75;;;3.63;;
24157;SDS011;12316;50.904;4.200;2023-07-24T11:30:35;4.88;;;3.33;;
24157;SDS011;12316;50.904;4.200;2023-07-24T11:33:02;5.05;;;3.50;;
24157;SDS011;12316;50.904;4.200;2023-07-24T11:35:30;3.85;;;3.03;;
24157;SDS011;12316;50.904;4.200;2023-07-24T11:37:56;3.50;;;2.75;;
24157;SDS011;12316;50.904;4.200;2023-07-24T11:40:30;2.90;;;2.60;;
24157;SDS011;12316;50.904;4.200;2023-07-24T11:42:58;3.58;;;2.78;;
24157;SDS011;12316;50.904;4.200;2023-07-24T11:45:23;7.05;;;3.15;;
24157;SDS011;12316;50.904;4.200;2023-07-24T11:47:49;6.30;;;3.00;;
24157;SDS011;12316;50.904;4.200;2023-07-24T11:50:17;3.92;;;3.00;;
24157;SDS011;12316;50.904;4.200;2023-07-24T11:52:47;4.75;;;2.78;;
24157;SDS011;12316;50.904;4.200;2023-07-24T11:55:17;3.63;;;2.72;;
24157;SDS011;12316;50.904;4.200;2023-07-24T11:57:58;3.45;;;2.90;;
24157;SDS011;12316;50.904;4.200;2023-07-24T12:00:25;4.65;;;2.95;;
24157;SDS011;12316;50.904;4.200;2023-07-24T12:02:51;4.00;;;2.97;;
24157;SDS011;12316;50.904;4.200;2023-07-24T12:05:17;3.95;;;3.15;;
24157;SDS011;12316;50.904;4.200;2023-07-24T12:07:44;4.07;;;3.10;;
24157;SDS011;12316;50.904;4.200;2023-07-24T12:10:11;6.68;;;3.00;;
24157;SDS011;12316;50.904;4.200;2023-07-24T12:12:43;5.03;;;3.05;;
24157;SDS011;12316;50.904;4.200;2023-07-24T12:15:11;4.72;;;3.13;;
24157;SDS011;12316;50.904;4.200;2023-07-24T12:17:37;4.13;;;3.50;;
24157;SDS011;12316;50.904;4.200;2023-07-24T12:20:04;4.47;;;2.90;;
24157;SDS011;12316;50.904;4.200;2023-07-24T12:22:31;3.65;;;2.78;;
24157;SDS011;12316;50.904;4.200;2023-07-24T12:24:57;4.03;;;3.00;;
24157;SDS011;12316;50.904;4.200;2023-07-24T12:27:23;3.60;;;2.97;;
24157;SDS011;12316;50.904;4.200;2023-07-24T12:29:49;4.05;;;3.00;;
24157;SDS011;12316;50.904;4.200;2023-07-24T12:32:16;4.55;;;3.05;;
24157;SDS011;12316;50.904;4.200;2023-07-24T12:34:43;3.40;;;3.00;;
24157;SDS011;12316;50.904;4.200;2023-07-24T12:37:10;6.03;;;2.97;;
24157;SDS011;12316;50.904;4.200;2023-07-24T12:39:36;4.32;;;2.83;;
24157;SDS011;12316;50.904;4.200;2023-07-24T12:42:01;4.05;;;2.72;;
24157;SDS011;12316;50.904;4.200;2023-07-24T12:44:27;6.07;;;2.92;;
24157;SDS011;12316;50.904;4.200;2023-07-24T12:46:53;3.58;;;2.63;;
24157;SDS011;12316;50.904;4.200;2023-07-24T12:49:18;3.28;;;2.60;;
24157;SDS011;12316;50.904;4.200;2023-07-24T12:51:44;5.55;;;2.80;;
24157;SDS011;12316;50.904;4.200;2023-07-24T12:54:10;3.15;;;2.40;;
24157;SDS011;12316;50.904;4.200;2023-07-24T12:56:36;5.07;;;2.85;;
24157;SDS011;12316;50.904;4.200;2023-07-24T12:59:01;3.58;;;2.70;;
24157;SDS011;12316;50.904;4.200;2023-07-24T13:01:27;4.63;;;3.25;;
24157;SDS011;12316;50.904;4.200;2023-07-24T13:03:54;6.85;;;2.92;;
24157;SDS011;12316;50.904;4.200;2023-07-24T13:06:19;3.05;;;2.70;;
24157;SDS011;12316;50.904;4.200;2023-07-24T13:08:45;3.20;;;2.90;;
24157;SDS011;12316;50.904;4.200;2023-07-24T13:11:11;6.68;;;2.97;;
24157;SDS011;12316;50.904;4.200;2023-07-24T13:13:37;6.68;;;3.20;;
24157;SDS011;12316;50.904;4.200;2023-07-24T13:16:02;5.10;;;3.05;;
24157;SDS011;12316;50.904;4.200;2023-07-24T13:18:29;5.75;;;3.03;;
24157;SDS011;12316;50.904;4.200;2023-07-24T13:20:55;3.30;;;2.85;;
24157;SDS011;12316;50.904;4.200;2023-07-24T13:23:21;4.88;;;2.70;;
24157;SDS011;12316;50.904;4.200;2023-07-24T13:25:47;5.93;;;2.80;;
24157;SDS011;12316;50.904;4.200;2023-07-24T13:28:13;3.92;;;3.10;;
24157;SDS011;12316;50.904;4.200;2023-07-24T13:30:38;4.18;;;2.97;;
24157;SDS011;12316;50.904;4.200;2023-07-24T13:33:04;3.78;;;2.80;;
24157;SDS011;12316;50.904;4.200;2023-07-24T13:35:30;3.00;;;2.70;;
24157;SDS011;12316;50.904;4.200;2023-07-24T13:37:55;3.20;;;2.83;;
24157;SDS011;12316;50.904;4.200;2023-07-24T13:40:21;6.03;;;3.22;;
24157;SDS011;12316;50.904;4.200;2023-07-24T13:42:47;4.10;;;2.80;;
24157;SDS011;12316;50.904;4.200;2023-07-24T13:45:12;3.20;;;2.53;;
24157;SDS011;12316;50.904;4.200;2023-07-24T13:47:38;3.33;;;2.60;;
24157;SDS011;12316;50.904;4.200;2023-07-24T13:50:04;3.72;;;2.97;;
24157;SDS011;12316;50.904;4.200;2023-07-24T13:52:30;3.83;;;2.75;;
24157;SDS011;12316;50.904;4.200;2023-07-24T13:54:56;4.03;;;2.65;;
24157;SDS011;12316;50.904;4.200;2023-07-24T13:57:21;4.40;;;2.63;;
24157;SDS011;12316;50.904;4.200;2023-07-24T13:59:47;5.50;;;3.13;;
24157;SDS011;12316;50.904;4.200;2023-07-24T14:02:13;4.32;;;3.05;;
24157;SDS011;12316;50.904;4.200;2023-07-24T14:04:39;3.47;;;2.90;;
24157;SDS011;12316;50.904;4.200;2023-07-24T14:07:05;4.75;;;2.78;;
24157;SDS011;12316;50.904;4.200;2023-07-24T14:09:31;3.85;;;2.80;;
24157;SDS011;12316;50.904;4.200;2023-07-24T14:11:59;4.18;;;3.00;;
24157;SDS011;12316;50.904;4.200;2023-07-24T14:14:25;6.28;;;3.08;;
24157;SDS011;12316;50.904;4.200;2023-07-24T14:16:51;5.28;;;2.83;;
24157;SDS011;12316;50.904;4.200;2023-07-24T14:19:17;4.22;;;2.70;;
24157;SDS011;12316;50.904;4.200;2023-07-24T14:21:44;4.65;;;2.80;;
24157;SDS011;12316;50.904;4.200;2023-07-24T14:24:09;3.22;;;2.45;;
24157;SDS011;12316;50.904;4.200;2023-07-24T14:26:35;4.70;;;3.00;;
24157;SDS011;12316;50.904;4.200;2023-07-24T14:29:04;5.40;;;3.10;;
24157;SDS011;12316;50.904;4.200;2023-07-24T14:31:29;3.90;;;2.90;;
24157;SDS011;12316;50.904;4.200;2023-07-24T14:33:55;5.57;;;3.10;;
24157;SDS011;12316;50.904;4.200;2023-07-24T14:36:21;3.92;;;2.80;;
24157;SDS011;12316;50.904;4.200;2023-07-24T14:38:47;6.40;;;2.95;;
24157;SDS011;12316;50.904;4.200;2023-07-24T14:41:12;5.80;;;3.30;;
24157;SDS011;12316;50.904;4.200;2023-07-24T14:43:40;5.30;;;3.70;;
24157;SDS011;12316;50.904;4.200;2023-07-24T14:46:06;5.07;;;3.40;;
24157;SDS011;12316;50.904;4.200;2023-07-24T14:48:32;5.93;;;3.88;;